Latest Weather Observations for Bendigo

IDV60801

Issued at 10:32 am EST Monday 19 August 2019 (issued every 10 minutes, with the page automatically refreshed every 10 minutes)

About weather observations | Map of weather stations | Latest weather observations for VIC | Other Formats
Station Details ID: 081123 Name: BENDIGO AIRPORT Lat: -36.74 Lon: 144.33 Height: 209.17 m
Data from the previous 72 hours. | See also: Recent months at Bendigo
Date/Time
EST
Temp
°C
App
Temp
°C
Dew
Point
°C
Rel
Hum
%
Delta-T
°C
Wind Press
QNH
hPa
Press
MSL
hPa
Rain since
9am
mm
Dir  Spd
km/h
Gust
km/h
Spd
kts
Gust
kts
19/10:30am 8.0 1.9 2.7 69 2.2 WSW 24 32 13 17 1020.7 1021.1 0.0
19/10:00am 7.1 1.8 2.8 74 1.8 WSW 20 26 11 14 1020.2 1020.6 0.0
19/09:30am 6.4 1.1 3.0 79 1.4 W 20 30 11 16 1019.6 1020.0 0.0
19/09:00am 5.0 -0.5 2.0 81 1.2 W 20 30 11 16 1018.9 1019.3 7.0
19/08:30am 4.1 -1.7 2.1 87 0.8 W 22 32 12 17 1018.4 1018.8 -
19/08:00am 3.1 -2.2 1.6 90 0.6 W 19 24 10 13 1018.0 1018.3 -
19/07:30am 2.3 -2.0 1.3 93 0.4 W 13 20 7 11 1017.4 1017.7 -
19/07:00am 2.0 -1.9 1.1 94 0.3 WSW 11 17 6 9 1016.7 1017.1 -
19/06:30am 2.1 -2.2 1.2 94 0.3 W 13 19 7 10 1015.9 1016.3 -
19/06:00am 2.1 -2.2 1.2 94 0.3 W 13 19 7 10 1015.3 1015.7 -
19/05:30am 2.3 -2.3 1.3 93 0.4 W 15 19 8 10 1014.9 1015.3 -
19/05:00am 2.8 -1.8 1.6 92 0.5 W 15 19 8 10 1014.6 1015.0 -
19/04:30am 3.0 -1.9 1.7 91 0.5 W 17 24 9 13 1014.3 1014.7 -
19/04:00am 3.3 -1.2 2.0 91 0.5 W 15 22 8 12 1013.9 1014.2 -
19/03:30am 3.6 -0.9 2.1 90 0.6 W 15 24 8 13 1013.6 1013.9 -
19/03:00am 3.9 -0.2 2.3 89 0.6 W 13 22 7 12 1013.4 1013.7 0.0
19/02:30am 3.9 -1.0 2.1 88 0.7 W 17 24 9 13 1013.4 1013.7 -
19/02:00am 4.6 -0.8 2.6 87 0.8 W 20 30 11 16 1013.0 1013.3 -
19/01:30am 4.5 -0.3 2.7 88 0.7 W 17 24 9 13 1012.9 1013.2 -
19/01:00am 4.6 -0.5 2.9 89 0.7 W 19 28 10 15 1012.7 1013.0 -
19/12:30am 4.7 -0.3 3.4 91 0.5 WNW 19 26 10 14 1012.7 1013.0 -
19/12:00am 5.0 -0.2 3.7 91 0.6 WNW 20 30 11 16 1012.5 1012.8 -
 
Date/Time
EST
Temp
°C
App
Temp
°C
Dew
Point
°C
Rel
Hum
%
Delta-T
°C
Wind Press
QNH
hPa
Press
MSL
hPa
Rain since
9am
mm
Dir  Spd
km/h
Gust
km/h
Spd
kts
Gust
kts
18/11:30pm 5.2 0.0 3.7 90 0.6 WNW 20 30 11 16 1012.4 1012.7 -
18/11:00pm 5.2 0.6 3.7 90 0.6 WNW 17 24 9 13 1012.3 1012.6 -
18/10:30pm 5.5 0.9 3.7 88 0.8 WNW 17 24 9 13 1011.7 1012.1 -
18/10:00pm 5.8 1.2 3.8 87 0.9 WNW 17 24 9 13 1011.3 1011.7 -
18/09:30pm 6.0 1.0 3.8 86 0.9 WNW 19 32 10 17 1011.1 1011.5 -
18/09:00pm 6.9 1.8 4.2 83 1.2 WNW 20 28 11 15 1010.7 1011.1 -
18/08:30pm 7.3 1.7 3.7 78 1.6 WNW 22 32 12 17 1010.4 1010.8 -
18/08:00pm 7.1 1.5 3.3 77 1.6 WNW 22 33 12 18 1009.6 1009.9 -
18/07:30pm 7.5 1.4 3.0 73 1.9 WNW 24 39 13 21 1008.9 1009.2 -
18/07:00pm 7.9 1.5 3.4 73 1.9 WNW 26 35 14 19 1008.3 1008.6 6.8
18/06:30pm 8.2 2.8 4.4 77 1.7 WNW 22 32 12 17 1007.9 1008.2 6.8
18/06:00pm 8.5 2.7 4.3 75 1.9 WNW 24 44 13 24 1007.4 1007.7 6.8
18/05:30pm 9.1 3.4 4.7 74 2.0 WNW 24 35 13 19 1007.3 1007.6 6.8
18/05:00pm 9.1 4.5 6.5 84 1.2 NW 20 30 11 16 1006.7 1007.1 6.6
18/04:30pm 8.7 4.4 7.2 90 0.7 NW 19 30 10 16 1006.7 1007.1 6.6
18/04:00pm 8.5 4.3 7.4 93 0.5 NNW 19 28 10 15 1006.4 1006.8 6.6
18/03:30pm 8.8 4.4 7.4 91 0.7 NW 20 28 11 15 1006.6 1007.0 5.2
18/03:00pm 9.0 4.8 7.6 91 0.7 NNW 19 26 10 14 1006.4 1006.8 4.0
18/02:54pm 9.2 5.0 7.6 90 0.8 NW 19 30 10 16 1006.4 1006.8 3.8
18/02:33pm 9.6 5.3 7.9 89 0.8 WNW 20 35 11 19 1006.5 1006.9 2.2
18/02:30pm 9.7 5.4 7.8 88 0.9 NW 20 30 11 16 1006.5 1006.9 1.8
18/02:00pm 11.1 6.8 6.8 75 2.1 NW 19 28 10 15 1006.1 1006.4 0.2
18/01:30pm 13.0 8.8 5.9 62 3.4 NW 17 24 9 13 1006.1 1006.4 0.0
18/01:00pm 13.5 9.6 5.4 58 3.9 WNW 15 22 8 12 1006.4 1006.8 0.0
18/12:30pm 13.7 10.2 5.3 57 4.0 WNW 13 20 7 11 1006.9 1007.2 0.0
18/12:00pm 14.3 9.6 6.2 58 3.9 NW 20 35 11 19 1007.2 1007.5 0.0
18/11:30am 14.6 9.8 4.6 51 4.7 N 19 26 10 14 1007.4 1007.7 0.0
18/11:00am 13.7 9.6 6.1 60 3.7 NNE 17 22 9 12 1008.0 1008.3 0.0
18/10:30am 12.3 8.1 5.9 65 3.0 NNE 17 22 9 12 1008.4 1008.7 0.0
18/10:00am 11.7 7.5 5.6 66 2.9 NNE 17 26 9 14 1008.7 1009.0 0.0
18/09:30am 10.9 6.2 5.0 67 2.7 ENE 19 26 10 14 1008.7 1009.0 0.0
18/09:00am 10.1 5.8 5.1 71 2.3 ENE 17 26 9 14 1009.2 1009.5 0.0
18/08:30am 9.7 5.4 5.1 73 2.1 ENE 17 26 9 14 1009.5 1009.8 0.0
18/08:00am 9.6 6.3 4.8 72 2.2 NE 11 17 6 9 1010.1 1010.4 0.0
18/07:30am 9.5 5.8 4.7 72 2.2 NE 13 20 7 11 1009.8 1010.1 0.0
18/07:00am 9.4 3.3 4.8 73 2.1 ENE 26 41 14 22 1008.9 1009.2 0.0
18/06:30am 9.1 2.3 5.1 76 1.8 ENE 30 39 16 21 1009.2 1009.5 0.0
18/06:00am 8.9 4.9 5.1 77 1.7 ENE 15 24 8 13 1010.4 1010.8 0.0
18/05:30am 8.1 4.5 5.0 81 1.4 ESE 13 20 7 11 1010.7 1011.1 0.0
18/05:00am 7.9 3.6 5.4 84 1.1 ENE 17 26 9 14 1010.9 1011.3 0.0
18/04:30am 7.8 4.6 5.3 84 1.1 ENE 11 19 6 10 1011.6 1012.0 0.0
18/04:00am 7.2 4.0 5.3 88 0.9 ESE 11 17 6 9 1012.1 1012.4 0.0
18/03:30am 7.6 4.5 5.6 87 0.9 ESE 11 15 6 8 1012.8 1013.1 0.0
18/03:00am 7.5 4.8 5.6 88 0.9 ESE 9 15 5 8 1013.4 1013.7 0.0
18/02:30am 7.8 4.4 5.9 88 0.9 E 13 20 7 11 1013.5 1013.8 0.0
18/02:00am 7.5 4.0 5.6 88 0.9 E 13 20 7 11 1014.1 1014.4 0.0
18/01:30am 7.6 4.6 5.9 89 0.8 ENE 11 17 6 9 1015.0 1015.4 0.0
18/01:00am 6.9 4.3 6.3 96 0.3 E 9 13 5 7 1015.1 1015.5 0.0
18/12:30am 5.5 2.8 5.4 99 0.0 SE 9 13 5 7 1015.3 1015.7 0.0
18/12:00am 4.8 2.3 4.7 99 0.0 SE 7 9 4 5 1015.7 1016.1 0.0
 
Date/Time
EST
Temp
°C
App
Temp
°C
Dew
Point
°C
Rel
Hum
%
Delta-T
°C
Wind Press
QNH
hPa
Press
MSL
hPa
Rain since
9am
mm
Dir  Spd
km/h
Gust
km/h
Spd
kts
Gust
kts
17/11:30pm 3.2 -0.4 2.8 97 0.2 SSE 11 13 6 7 1015.7 1016.1 0.0
17/11:20pm 3.8 1.1 3.5 98 0.1 SE 7 9 4 5 1016.0 1016.4 0.0
17/11:00pm 2.9 1.3 2.3 96 0.2 CALM 0 0 0 0 1016.0 1016.4 0.0
17/10:59pm 3.1 1.5 2.7 97 0.2 CALM 0 0 0 0 1016.0 1016.4 0.0
17/10:30pm 3.4 1.1 2.8 96 0.2 ESE 4 6 2 3 1016.1 1016.5 0.0
17/10:00pm 3.2 1.2 2.3 94 0.4 ESE 2 6 1 3 1016.9 1017.2 0.0
17/09:30pm 4.4 1.9 3.5 94 0.4 ESE 6 7 3 4 1017.1 1017.4 0.0
17/09:00pm 5.6 4.4 4.6 93 0.4 CALM 0 4 0 2 1017.5 1017.8 0.0
17/08:30pm 5.7 4.1 4.7 93 0.4 E 2 9 1 5 1017.3 1017.6 0.0
17/08:00pm 4.8 3.4 3.8 93 0.4 CALM 0 0 0 0 1017.0 1017.3 0.0
17/07:30pm 5.4 4.1 3.9 90 0.6 CALM 0 0 0 0 1017.0 1017.3 0.0
17/07:00pm 6.0 3.6 4.2 88 0.8 E 6 6 3 3 1017.0 1017.3 0.0
17/06:30pm 8.1 6.9 4.5 78 1.6 CALM 0 0 0 0 1017.0 1017.3 0.0
17/06:00pm 10.5 7.7 5.1 69 2.5 NE 9 11 5 6 1016.6 1017.0 0.0
17/05:30pm 11.7 8.0 4.7 62 3.2 NNE 13 17 7 9 1016.4 1016.8 0.0
17/05:00pm 12.4 8.3 4.1 57 3.8 NE 15 20 8 11 1016.1 1016.5 0.0
17/04:30pm 13.2 9.3 3.3 51 4.5 NE 13 19 7 10 1016.6 1017.0 0.0
17/04:00pm 13.4 8.8 3.8 52 4.4 NNE 17 22 9 12 1017.1 1017.4 0.0
17/03:30pm 13.7 10.0 4.6 54 4.2 NNE 13 22 7 12 1017.6 1017.9 0.0
17/03:00pm 13.9 9.9 4.8 54 4.3 N 15 22 8 12 1017.7 1018.0 0.0
17/02:30pm 13.7 9.0 5.3 57 4.0 N 19 24 10 13 1017.7 1018.0 0.0
17/02:00pm 14.1 10.4 6.2 59 3.8 NNE 15 22 8 12 1017.6 1017.9 0.0
17/01:30pm 13.9 10.9 5.8 58 3.9 N 11 20 6 11 1018.0 1018.3 0.0
17/01:00pm 14.0 11.2 5.1 55 4.2 NE 9 17 5 9 1018.6 1019.0 0.0
17/12:30pm 13.6 10.4 5.3 57 3.9 NE 11 17 6 9 1019.0 1019.4 0.0
17/12:00pm 12.9 9.6 4.6 57 3.8 E 11 17 6 9 1019.4 1019.8 0.0
17/11:30am 12.4 8.9 5.6 63 3.2 SE 13 19 7 10 1019.9 1020.3 0.0
17/11:00am 11.5 7.5 4.7 63 3.1 SSE 15 22 8 12 1020.2 1020.6 0.0
17/10:30am 10.6 6.6 4.7 67 2.7 SE 15 24 8 13 1020.6 1021.0 0.0
17/10:00am 9.4 4.8 3.8 68 2.5 SSE 17 24 9 13 1020.7 1021.1 0.0
17/09:30am 8.8 5.0 4.0 72 2.1 SSE 13 17 7 9 1021.0 1021.4 0.0
17/09:00am 6.9 4.8 6.8 99 0.0 SSE 7 9 4 5 1021.0 1021.4 0.6
17/08:30am 3.8 2.4 3.8 100 0.0 CALM 0 0 0 0 1021.1 1021.5 0.6
17/08:00am 0.9 -1.7 0.8 99 0.0 SSW 4 7 2 4 1020.9 1021.3 0.4
17/07:30am -0.5 -3.7 -0.6 99 0.0 SW 6 6 3 3 1021.1 1021.5 0.4
17/07:13am -1.1 -4.4 -1.4 98 0.1 SSW 6 6 3 3 1020.8 1021.2 0.4
17/07:00am -0.1 -2.1 -0.2 99 0.0 CALM 0 0 0 0 1020.6 1021.0 0.4
17/06:30am -0.2 -2.3 -0.5 98 0.1 CALM 0 0 0 0 1020.3 1020.7 0.4
17/06:06am -0.5 -2.6 -0.8 98 0.1 CALM 0 2 0 1 1020.1 1020.5 0.4
17/06:00am -0.2 -2.6 -0.5 98 0.1 WSW 2 6 1 3 1020.0 1020.4 0.4
17/05:30am 0.5 -1.5 0.2 98 0.1 CALM 0 0 0 0 1019.7 1020.1 0.4
17/05:00am 0.7 -2.6 0.3 97 0.1 S 7 9 4 5 1019.8 1020.2 0.4
17/04:30am 2.6 -0.3 2.5 99 0.0 SW 7 11 4 6 1019.9 1020.3 0.4
17/04:06am 2.1 -0.9 2.0 99 0.0 SW 7 11 4 6 1019.7 1020.1 0.4
17/04:00am 1.7 -1.4 1.6 99 0.0 SW 7 9 4 5 1019.7 1020.1 0.4
17/03:48am 1.5 -1.0 1.4 99 0.0 SW 4 9 2 5 1019.7 1020.1 0.4
17/03:30am 1.2 -0.6 0.9 98 0.1 CALM 0 2 0 1 1019.7 1020.1 0.4
17/03:26am 1.2 -1.0 0.9 98 0.1 SW 2 7 1 4 1019.7 1020.1 0.4
17/03:00am 1.1 -1.9 0.8 98 0.1 WNW 6 7 3 4 1019.8 1020.2 0.4
17/02:30am 1.3 -0.5 0.9 97 0.2 CALM 0 6 0 3 1019.9 1020.3 0.4
17/02:17am 1.4 -0.4 1.0 97 0.2 CALM 0 0 0 0 1020.0 1020.4 0.4
17/02:00am 1.5 -0.7 1.1 97 0.2 S 2 7 1 4 1020.0 1020.4 0.4
17/01:30am 2.0 -0.9 1.6 97 0.2 SW 6 9 3 5 1020.0 1020.4 0.4
17/01:00am 1.8 -1.3 1.4 97 0.2 WSW 7 9 4 5 1020.0 1020.4 0.4
17/12:30am 2.3 -0.7 1.9 97 0.2 SW 7 9 4 5 1020.3 1020.7 0.4
17/12:25am 1.7 -1.4 1.3 97 0.2 SW 7 11 4 6 1020.3 1020.7 0.4
17/12:05am 1.5 -1.5 0.9 96 0.2 SW 6 9 3 5 1020.2 1020.6 0.4
17/12:00am 1.2 -1.8 0.6 96 0.2 SW 6 7 3 4 1020.1 1020.5 0.4
 
Date/Time
EST
Temp
°C
App
Temp
°C
Dew
Point
°C
Rel
Hum
%
Delta-T
°C
Wind Press
QNH
hPa
Press
MSL
hPa
Rain since
9am
mm
Dir  Spd
km/h
Gust
km/h
Spd
kts
Gust
kts
16/11:30pm 2.2 0.5 1.6 96 0.2 CALM 0 0 0 0 1020.1 1020.5 0.4
16/11:00pm 2.3 -0.6 1.4 94 0.3 N 6 7 3 4 1020.2 1020.6 0.4
16/10:30pm 3.4 0.7 2.5 94 0.4 SW 6 9 3 5 1020.0 1020.4 0.4
16/10:00pm 3.3 0.5 2.1 92 0.5 S 6 11 3 6 1019.9 1020.3 0.4
16/09:30pm 4.5 3.0 3.0 90 0.6 CALM 0 0 0 0 1019.7 1020.1 0.4
16/09:00pm 6.1 3.5 3.3 82 1.2 SSE 6 9 3 5 1019.2 1019.6 0.4
16/08:30pm 7.2 3.8 4.2 81 1.3 SSW 11 15 6 8 1018.9 1019.3 0.4
16/08:00pm 7.9 5.0 4.5 79 1.5 SSW 9 13 5 7 1018.6 1019.0 0.4
16/07:30pm 8.7 5.0 4.7 76 1.8 SW 13 20 7 11 1018.2 1018.6 0.4
16/07:00pm 8.8 5.1 4.6 75 1.9 SSW 13 17 7 9 1017.8 1018.1 0.4
16/06:30pm 9.1 5.6 5.5 78 1.6 SW 13 19 7 10 1017.2 1017.5 0.4
16/06:00pm 10.0 6.1 5.4 73 2.1 SW 15 22 8 12 1016.7 1017.1 0.4
16/05:30pm 11.0 6.0 6.4 73 2.2 SSW 22 33 12 18 1016.2 1016.6 0.4
16/05:00pm 11.4 6.2 7.3 76 2.0 SW 24 35 13 19 1015.8 1016.2 0.4
16/04:30pm 12.2 7.5 7.9 75 2.1 SW 22 35 12 19 1015.2 1015.6 0.4
16/04:00pm 12.3 9.4 9.7 84 1.3 SW 15 26 8 14 1014.9 1015.3 0.4
16/03:30pm 11.4 8.5 9.7 89 0.9 SSW 15 22 8 12 1014.4 1014.8 0.2
16/03:26pm 11.3 8.4 9.7 90 0.8 SSW 15 24 8 13 1014.3 1014.7 0.2
16/03:16pm 11.5 6.9 9.8 89 0.9 SW 24 39 13 21 1014.3 1014.7 0.2
16/03:00pm 13.3 8.6 9.2 76 2.1 WSW 24 37 13 20 1013.7 1014.0 0.0
16/02:30pm 14.3 10.2 8.0 66 3.2 W 19 26 10 14 1013.2 1013.5 0.0
16/02:00pm 14.9 12.1 7.0 59 3.9 NW 11 19 6 10 1013.1 1013.4 0.0
16/01:30pm 13.3 9.2 4.5 55 4.1 NW 15 20 8 11 1013.5 1013.8 0.0
16/01:00pm 13.3 10.5 5.0 57 3.9 NW 9 13 5 7 1013.5 1013.8 0.0
16/12:30pm 11.8 8.9 4.8 62 3.2 NW 9 13 5 7 1013.7 1014.0 0.0
16/12:00pm 11.4 8.5 4.6 63 3.1 NE 9 11 5 6 1014.1 1014.4 0.0
16/11:30am 10.9 8.4 5.0 67 2.7 ENE 7 9 4 5 1015.0 1015.4 0.0
16/11:00am 10.4 8.2 5.4 71 2.3 N 6 7 3 4 1015.1 1015.5 0.0

Other formats

Comma delimited format used in spreadsheet applications
http://www.bom.gov.au/fwo/IDV60801/IDV60801.94855.axf

JavaScript Object Notation format (JSON) in row-major order
http://www.bom.gov.au/fwo/IDV60801/IDV60801.94855.json

Data quality

Most of these data are generated automatically and are frequently updated. Quality checks on data are not normally performed. It is possible for incorrect values to appear. Refer to information at About Latest Weather Observations and please check the disclaimer before using these data.